N650LV EGSS-SABE
Flight info
| Callsign | N650LV |
|---|---|
| Flight time | N/A |
| Altitude | 39000 |
| Route | NUGBO DCT GOGSI N621 SAM M195 IBNID/N0491F410 M195 LORKU DCT ERCOZ DCT KOLEK DCT KORUL DCT RIMTU DCT XERES DCT SOPOP DCT TABAX DCT TELMU Q205 SNT/N0486F430 Q205 NELSO N741 ROSTA/N0482F450 N741 EDUMO UN741 NANIK/N0470F470 UN741 GEVMI UM654 BIXAN UN741 PAPIX PAPIX2Q |
| Aircraft | GLF6/M-SBDE2E3FGHIJ3J4J5P2RWXYZ/LB2D1 |
Departure
| Time | 2026-05-05 00:06 |
|---|---|
| Airport | London Stansted Airport (EGSS) |
Arrival
| Time | N/A |
|---|---|
| Airport | Aeroparque Jorge Newbery (SABE) |
| Time | Latitude | Longitude | Altitude | Speed | Heading |
|---|---|---|---|---|---|
| 2026-05-04 23:52 | 51.88688 | 0.22563 | 357 ft | 0 kts | 291° |
| 2026-05-05 00:01 | 51.88704 | 0.22530 | 356 ft | 6 kts | 351° |
| 2026-05-05 00:01 | 51.88741 | 0.22586 | 357 ft | 10 kts | 84° |
| 2026-05-05 00:01 | 51.88695 | 0.22706 | 357 ft | 15 kts | 130° |
| 2026-05-05 00:02 | 51.88616 | 0.22861 | 357 ft | 15 kts | 129° |
| 2026-05-05 00:02 | 51.88555 | 0.22988 | 357 ft | 16 kts | 127° |
| 2026-05-05 00:02 | 51.88459 | 0.23012 | 357 ft | 18 kts | 213° |
| 2026-05-05 00:02 | 51.88342 | 0.22841 | 357 ft | 25 kts | 223° |
| 2026-05-05 00:03 | 51.88224 | 0.22664 | 357 ft | 23 kts | 223° |
| 2026-05-05 00:03 | 51.88097 | 0.22474 | 357 ft | 23 kts | 223° |
| 2026-05-05 00:03 | 51.87981 | 0.22299 | 357 ft | 22 kts | 221° |
| 2026-05-05 00:03 | 51.87871 | 0.22135 | 357 ft | 23 kts | 223° |
| 2026-05-05 00:04 | 51.87755 | 0.21958 | 357 ft | 17 kts | 223° |
| 2026-05-05 00:04 | 51.87662 | 0.21912 | 357 ft | 8 kts | 166° |
| 2026-05-05 00:04 | 51.87648 | 0.21917 | 357 ft | 0 kts | 166° |
| 2026-05-05 00:05 | 51.87642 | 0.21919 | 357 ft | 3 kts | 166° |
| 2026-05-05 00:05 | 51.87601 | 0.21939 | 357 ft | 9 kts | 161° |
| 2026-05-05 00:05 | 51.87557 | 0.22057 | 357 ft | 39 kts | 55° |
| 2026-05-05 00:05 | 51.88017 | 0.22750 | 363 ft | 136 kts | 42° |
| 2026-05-05 00:06 | 51.88824 | 0.23882 | 908 ft | 154 kts | 42° |
| 2026-05-05 00:06 | 51.89691 | 0.25197 | 1272 ft | 179 kts | 45° |
| 2026-05-05 00:06 | 51.90686 | 0.26731 | 2062 ft | 218 kts | 43° |
| 2026-05-05 00:06 | 51.91930 | 0.27701 | 2657 ft | 254 kts | 12° |
| 2026-05-05 00:07 | 51.93697 | 0.27338 | 3264 ft | 272 kts | 340° |
| 2026-05-05 00:07 | 51.95423 | 0.26013 | 3710 ft | 274 kts | 334° |
| 2026-05-05 00:07 | 51.96955 | 0.24214 | 4223 ft | 277 kts | 306° |
| 2026-05-05 00:07 | 51.97641 | 0.21328 | 4812 ft | 274 kts | 274° |
| 2026-05-05 00:08 | 51.97843 | 0.18432 | 5015 ft | 279 kts | 276° |
| 2026-05-05 00:08 | 51.98132 | 0.15348 | 4990 ft | 276 kts | 276° |
| 2026-05-05 00:08 | 51.98416 | 0.12294 | 5002 ft | 276 kts | 276° |
| 2026-05-05 00:08 | 51.98703 | 0.09182 | 5002 ft | 275 kts | 276° |
| 2026-05-05 00:09 | 51.98779 | 0.06105 | 4989 ft | 271 kts | 260° |
| 2026-05-05 00:09 | 51.98498 | 0.03060 | 5011 ft | 271 kts | 257° |
| 2026-05-05 00:09 | 51.98153 | 0.00034 | 5003 ft | 271 kts | 256° |
| 2026-05-05 00:09 | 51.97783 | -0.02947 | 5000 ft | 269 kts | 262° |
| 2026-05-05 00:10 | 51.97240 | -0.05874 | 4979 ft | 271 kts | 245° |
| 2026-05-05 00:10 | 51.96508 | -0.08667 | 5278 ft | 266 kts | 255° |
| 2026-05-05 00:10 | 51.95924 | -0.11490 | 6036 ft | 266 kts | 255° |
| 2026-05-05 00:10 | 51.95336 | -0.14294 | 6783 ft | 266 kts | 255° |
| 2026-05-05 00:11 | 51.94745 | -0.17114 | 7535 ft | 265 kts | 255° |
| 2026-05-05 00:11 | 51.94161 | -0.19917 | 8284 ft | 264 kts | 255° |
| 2026-05-05 00:11 | 51.93573 | -0.22816 | 9068 ft | 285 kts | 255° |
| 2026-05-05 00:11 | 51.92951 | -0.26019 | 9898 ft | 311 kts | 255° |
| 2026-05-05 00:12 | 51.92321 | -0.29400 | 10704 ft | 321 kts | 255° |
| 2026-05-05 00:12 | 51.91696 | -0.32890 | 11475 ft | 322 kts | 255° |
| 2026-05-05 00:12 | 51.91096 | -0.36397 | 12230 ft | 323 kts | 255° |
| 2026-05-05 00:12 | 51.90509 | -0.39914 | 12985 ft | 324 kts | 255° |
| 2026-05-05 00:13 | 51.89933 | -0.43368 | 13723 ft | 324 kts | 255° |
| 2026-05-05 00:13 | 51.89459 | -0.46163 | 14349 ft | 325 kts | 252° |
| 2026-05-05 00:13 | 51.88225 | -0.49076 | 16113 ft | 304 kts | 228° |
| 2026-05-05 00:13 | 51.86389 | -0.51083 | 16154 ft | 342 kts | 213° |
| 2026-05-05 00:14 | 51.84282 | -0.52902 | 16898 ft | 349 kts | 214° |
| 2026-05-05 00:14 | 51.82248 | -0.54746 | 18254 ft | 339 kts | 216° |
| 2026-05-05 00:14 | 51.80207 | -0.56648 | 18980 ft | 348 kts | 217° |
| 2026-05-05 00:14 | 51.78110 | -0.58611 | 19930 ft | 350 kts | 217° |
| 2026-05-05 00:15 | 51.76048 | -0.60541 | 20985 ft | 350 kts | 217° |
| 2026-05-05 00:15 | 51.73936 | -0.62523 | 21813 ft | 355 kts | 218° |
| 2026-05-05 00:15 | 51.71847 | -0.64477 | 22757 ft | 357 kts | 218° |
| 2026-05-05 00:15 | 51.69858 | -0.66321 | 24465 ft | 336 kts | 218° |
| 2026-05-05 00:16 | 51.67860 | -0.68198 | 25207 ft | 341 kts | 218° |
| 2026-05-05 00:16 | 51.66784 | -0.69212 | 25325 ft | 351 kts | 218° |
| 2026-05-05 00:16 | 51.64645 | -0.71202 | 26277 ft | 350 kts | 218° |
| 2026-05-05 00:16 | 51.62581 | -0.73121 | 27244 ft | 347 kts | 219° |
| 2026-05-05 00:17 | 51.60489 | -0.75075 | 27765 ft | 355 kts | 219° |
| 2026-05-05 00:17 | 51.58374 | -0.77039 | 28550 ft | 356 kts | 219° |
| 2026-05-05 00:17 | 51.56281 | -0.78981 | 29319 ft | 356 kts | 219° |
| 2026-05-05 00:17 | 51.54142 | -0.80968 | 29890 ft | 361 kts | 219° |
| 2026-05-05 00:18 | 51.51977 | -0.82973 | 30569 ft | 363 kts | 220° |
| 2026-05-05 00:18 | 51.49790 | -0.84996 | 31242 ft | 364 kts | 220° |
| 2026-05-05 00:18 | 51.47593 | -0.87029 | 31804 ft | 367 kts | 220° |
| 2026-05-05 00:18 | 51.45408 | -0.89045 | 32401 ft | 369 kts | 220° |
| 2026-05-05 00:19 | 51.43190 | -0.91091 | 32978 ft | 371 kts | 220° |
| 2026-05-05 00:19 | 51.40962 | -0.93144 | 33533 ft | 372 kts | 220° |
| 2026-05-05 00:19 | 51.38710 | -0.95212 | 34323 ft | 367 kts | 220° |
| 2026-05-05 00:19 | 51.36528 | -0.97218 | 34966 ft | 365 kts | 220° |
| 2026-05-05 00:20 | 51.34305 | -0.99264 | 35455 ft | 366 kts | 220° |
| 2026-05-05 00:20 | 51.32099 | -1.01286 | 36013 ft | 364 kts | 220° |
| 2026-05-05 00:20 | 51.29919 | -1.03284 | 36531 ft | 364 kts | 220° |
| 2026-05-05 00:20 | 51.27721 | -1.05297 | 36983 ft | 364 kts | 220° |
| 2026-05-05 00:21 | 51.25541 | -1.07289 | 37423 ft | 364 kts | 220° |
| 2026-05-05 00:21 | 51.23342 | -1.09297 | 37863 ft | 364 kts | 220° |
| 2026-05-05 00:21 | 51.21146 | -1.11301 | 38277 ft | 364 kts | 220° |
| 2026-05-05 00:21 | 51.18937 | -1.13313 | 38679 ft | 365 kts | 219° |
| 2026-05-05 00:22 | 51.16744 | -1.15310 | 38996 ft | 367 kts | 219° |
| 2026-05-05 00:22 | 51.12177 | -1.19465 | 39027 ft | 386 kts | 219° |
| 2026-05-05 00:23 | 51.07445 | -1.23749 | 39015 ft | 395 kts | 218° |
| 2026-05-05 00:23 | 51.02683 | -1.28051 | 39005 ft | 394 kts | 218° |
| 2026-05-05 00:24 | 50.97927 | -1.32343 | 39009 ft | 395 kts | 219° |
| 2026-05-05 00:24 | 50.93269 | -1.36868 | 39012 ft | 394 kts | 221° |
| 2026-05-05 00:25 | 50.88684 | -1.41641 | 39014 ft | 395 kts | 222° |
| 2026-05-05 00:25 | 50.84064 | -1.46443 | 39015 ft | 396 kts | 222° |
| 2026-05-05 00:26 | 50.79488 | -1.51191 | 39013 ft | 396 kts | 222° |
| 2026-05-05 00:26 | 50.74899 | -1.55939 | 39012 ft | 396 kts | 222° |
| 2026-05-05 00:27 | 50.70286 | -1.60702 | 39011 ft | 396 kts | 222° |
| 2026-05-05 00:27 | 50.65681 | -1.65444 | 39012 ft | 396 kts | 221° |
| 2026-05-05 00:28 | 50.61067 | -1.70184 | 39025 ft | 396 kts | 221° |
| 2026-05-05 00:28 | 50.56473 | -1.74888 | 39025 ft | 395 kts | 221° |
| 2026-05-05 00:29 | 50.51884 | -1.79562 | 39013 ft | 387 kts | 221° |
| 2026-05-05 00:29 | 50.49652 | -1.81826 | 39003 ft | 374 kts | 221° |
| 2026-05-05 00:29 | 50.47533 | -1.83983 | 39007 ft | 362 kts | 221° |
| 2026-05-05 00:29 | 50.45458 | -1.86095 | 38988 ft | 351 kts | 221° |
| 2026-05-05 00:30 | 50.43430 | -1.88157 | 38985 ft | 340 kts | 222° |
| 2026-05-05 00:30 | 50.41499 | -1.90119 | 38990 ft | 329 kts | 222° |
| 2026-05-05 00:30 | 50.39605 | -1.92041 | 38997 ft | 319 kts | 222° |